Few Clouds Current Weather (METAR) For Cancun Airport

All times on the weather descriptions are local

Observed at 22:43 - (35 mins ago)

Few Clouds

25°C

Few Clouds
Clouds: Few Clouds at 1,500ft
Wind: 100° at 05 knots
Visibility: 7 statute miles
QNH:
Dew Point: 22°C
Runway in Use: Runway 12

Sunrise Today: 06:07
Sunset Today: 17:52

Forecast Weather (TAF) For Cancun Airport

Issued at 18:00 - (5 hrs 18 mins ago)


Runway in Use: Unable to determine, wind is clam

Forecast valid until 18:00 on Friday

METAR/TAF RAW METAR / TAF

MMUN 280443Z 10005KT 7SM FEW015 25/22 A3006 RMK 8/500

Weather Widget

Put weather from any of our airports on your website with our weather widget.

Find Another Search

Airport Search


Please Wait Please Wait - Loading
Close
Close

Login

Username:

Password:

Remember Me:

Remember me on this computer

Forgotten your password? Get a reset password sent to your registered e-mail address

Close

User Private Message

Subject:

Message: